Time;durP1;ratioP1;P1;durP2;ratioP2;P2;SDS_P1;SDS_P2;PMS_P1;PMS_P2;Temp;Humidity;BMP_temperature;BMP_pressure;BME280_temperature;BME280_humidity;BME280_pressure;Samples;Min_cycle;Max_cycle;Signal;HPM_P1;HPM_P2
2022/09/17 00:00:03;;;;;;;0.57;0.53;;;;;;;11.47;100.00;99895.44;5048605;28;20456;-74
2022/09/17 00:02:29;;;;;;;0.50;0.30;;;;;;;11.37;100.00;99886.06;5047874;28;20458;-74
2022/09/17 00:04:56;;;;;;;1.27;0.83;;;;;;;11.35;100.00;99890.56;5048537;28;20459;-74
2022/09/17 00:07:22;;;;;;;1.10;0.70;;;;;;;11.37;100.00;99894.03;5036110;28;20475;-74
2022/09/17 00:09:49;;;;;;;3.90;0.90;;;;;;;11.32;100.00;99885.38;5048309;28;20484;-74
2022/09/17 00:12:15;;;;;;;0.50;0.40;;;;;;;11.31;100.00;99877.44;5035140;28;20513;-74
2022/09/17 00:14:41;;;;;;;1.53;0.60;;;;;;;11.35;100.00;99881.72;5017554;28;20889;-73
2022/09/17 00:17:08;;;;;;;3.20;0.97;;;;;;;11.43;100.00;99890.28;5046997;28;20471;-74
2022/09/17 00:19:34;;;;;;;16.17;0.67;;;;;;;11.35;100.00;99892.38;5041790;28;20446;-74
2022/09/17 00:22:01;;;;;;;16.07;1.00;;;;;;;11.31;100.00;99893.41;5040645;28;20451;-74
2022/09/17 00:24:28;;;;;;;0.40;0.30;;;;;;;11.34;100.00;99893.28;5034991;28;20472;-74
2022/09/17 00:26:55;;;;;;;0.70;0.40;;;;;;;11.31;100.00;99896.06;5041955;28;20521;-74
2022/09/17 00:29:21;;;;;;;1.90;0.77;;;;;;;11.27;100.00;99898.00;5040695;28;20497;-74
2022/09/17 00:31:47;;;;;;;0.40;0.30;;;;;;;11.35;100.00;99901.22;5041131;28;20809;-74
2022/09/17 00:34:14;;;;;;;5.60;0.60;;;;;;;11.21;100.00;99899.06;5045376;28;21005;-74
2022/09/17 00:36:41;;;;;;;0.40;0.30;;;;;;;11.30;100.00;99895.22;5037188;28;20484;-74
2022/09/17 00:39:10;;;;;;;3.50;0.63;;;;;;;11.30;100.00;99903.19;5046842;28;20498;-74
2022/09/17 00:41:37;;;;;;;5.20;0.63;;;;;;;11.45;100.00;99896.41;5047843;28;20455;-74
2022/09/17 00:44:41;;;;;;;0.40;0.30;;;;;;;11.43;100.00;99893.81;5040861;28;20458;-74
2022/09/17 00:47:30;;;;;;;1.07;0.67;;;;;;;11.34;100.00;99896.81;5047141;28;20521;-74
2022/09/17 00:50:09;;;;;;;0.87;0.53;;;;;;;11.33;100.00;99896.88;5037203;28;20536;-74
2022/09/17 00:52:42;;;;;;;0.50;0.37;;;;;;;11.28;100.00;99900.59;5034669;28;20987;-74
2022/09/17 00:55:20;;;;;;;2.03;0.40;;;;;;;11.28;100.00;99894.41;5046847;28;20448;-74
2022/09/17 00:57:50;;;;;;;0.70;0.30;;;;;;;11.31;100.00;99901.41;5046292;28;20516;-74
2022/09/17 01:00:17;;;;;;;0.70;0.33;;;;;;;11.15;100.00;99904.63;5040957;28;20500;-74
2022/09/17 01:02:44;;;;;;;2.00;0.80;;;;;;;11.27;100.00;99913.97;5033785;28;20452;-74
2022/09/17 01:05:12;;;;;;;0.70;0.70;;;;;;;11.30;100.00;99913.84;5045736;28;20863;-74
2022/09/17 01:07:54;;;;;;;1.13;0.60;;;;;;;11.24;100.00;99914.09;5037485;28;20545;-74
2022/09/17 01:10:27;;;;;;;0.60;0.40;;;;;;;11.28;100.00;99913.03;5042320;28;20454;-74
2022/09/17 01:13:05;;;;;;;3.50;1.07;;;;;;;11.42;100.00;99913.38;5034539;28;20455;-74
2022/09/17 01:15:46;;;;;;;0.90;0.50;;;;;;;11.32;100.00;99917.31;5039980;28;20447;-74
2022/09/17 01:18:21;;;;;;;8.83;0.70;;;;;;;11.39;100.00;99915.28;5047924;28;20481;-74
2022/09/17 01:21:11;;;;;;;0.90;0.60;;;;;;;11.27;100.00;99917.50;5036149;28;20519;-74
2022/09/17 01:23:59;;;;;;;1.43;0.93;;;;;;;11.33;100.00;99907.53;5035516;28;20454;-74
2022/09/17 01:26:45;;;;;;;0.80;0.80;;;;;;;11.23;100.00;99910.53;5043337;28;20504;-74
2022/09/17 01:29:32;;;;;;;0.50;0.40;;;;;;;11.21;100.00;99911.50;5039444;28;20548;-74
2022/09/17 01:32:17;;;;;;;0.70;0.60;;;;;;;11.15;100.00;99907.28;5042391;28;20450;-74
2022/09/17 01:35:19;;;;;;;0.70;0.63;;;;;;;11.24;100.00;99908.75;5034468;28;20531;-74
2022/09/17 01:37:50;;;;;;;1.90;1.70;;;;;;;11.19;100.00;99908.91;5038482;28;20528;-74
2022/09/17 01:40:25;;;;;;;0.87;0.87;;;;;;;11.27;100.00;99916.63;5039602;28;20513;-74
2022/09/17 01:43:03;;;;;;;7.63;0.40;;;;;;;11.25;100.00;99915.81;5042031;28;20542;-74
2022/09/17 01:45:36;;;;;;;0.87;0.53;;;;;;;11.20;100.00;99917.75;5046320;28;21003;-74
2022/09/17 01:48:10;;;;;;;0.80;0.70;;;;;;;11.17;100.00;99918.75;5046526;28;20544;-74
2022/09/17 01:50:43;;;;;;;1.23;1.13;;;;;;;11.11;100.00;99915.47;5032613;28;20454;-74
2022/09/17 01:53:11;;;;;;;0.60;0.40;;;;;;;11.21;100.00;99919.50;5046587;28;20458;-74
2022/09/17 01:55:42;;;;;;;0.40;0.30;;;;;;;11.14;100.00;99916.22;5041399;28;20966;-74
2022/09/17 01:58:44;;;;;;;0.40;0.30;;;;;;;11.20;100.00;99928.41;5039389;28;20470;-74
2022/09/17 02:01:15;;;;;;;0.50;0.30;;;;;;;11.16;100.00;99921.47;5009025;28;20871;-74
2022/09/17 02:03:58;;;;;;;7.83;0.40;;;;;;;11.09;100.00;99920.81;5042768;28;20444;-74
2022/09/17 02:06:30;;;;;;;0.70;0.53;;;;;;;11.21;100.00;99915.03;5046020;28;20501;-74
2022/09/17 02:09:04;;;;;;;0.70;0.40;;;;;;;11.24;100.00;99922.94;5045420;28;20495;-74
2022/09/17 02:11:35;;;;;;;0.63;0.53;;;;;;;11.25;100.00;99915.81;5044190;28;20454;-74
2022/09/17 02:14:06;;;;;;;1.43;0.80;;;;;;;11.17;100.00;99917.88;5039439;28;20513;-74
2022/09/17 02:16:36;;;;;;;1.37;0.70;;;;;;;11.21;100.00;99925.69;5045310;28;20467;-74
2022/09/17 02:19:15;;;;;;;0.70;0.70;;;;;;;11.07;100.00;99920.00;5048669;28;20819;-74
2022/09/17 02:21:46;;;;;;;0.60;0.50;;;;;;;11.08;100.00;99928.84;5038995;28;20482;-74
2022/09/17 02:24:30;;;;;;;1.53;0.70;;;;;;;11.15;100.00;99923.25;5044058;28;20509;-74
2022/09/17 02:27:16;;;;;;;0.70;0.60;;;;;;;11.04;100.00;99925.44;5045485;28;20467;-74
2022/09/17 02:29:43;;;;;;;0.40;0.30;;;;;;;11.13;100.00;99919.78;5043021;28;20543;-74
2022/09/17 02:32:11;;;;;;;0.50;0.47;;;;;;;11.33;100.00;99934.13;5045830;28;20488;-74
2022/09/17 02:34:39;;;;;;;1.00;0.60;;;;;;;11.24;100.00;99924.72;5043762;28;20447;-74
2022/09/17 02:37:06;;;;;;;0.50;0.50;;;;;;;11.16;100.00;99932.97;5034395;28;20494;-74
2022/09/17 02:39:32;;;;;;;1.63;1.10;;;;;;;11.23;100.00;99929.16;5043739;28;20497;-74
2022/09/17 02:42:21;;;;;;;3.73;1.20;;;;;;;11.33;100.00;99928.81;5045437;28;20455;-74
2022/09/17 02:45:02;;;;;;;6.20;1.77;;;;;;;11.36;100.00;99929.56;5046714;28;21001;-74
2022/09/17 02:48:14;;;;;;;0.60;0.40;;;;;;;11.39;100.00;99925.94;5042302;28;20892;-74
2022/09/17 02:50:40;;;;;;;0.50;0.40;;;;;;;11.47;99.89;99927.38;5032073;28;20494;-75
2022/09/17 02:53:23;;;;;;;0.40;0.30;;;;;;;11.51;99.78;99931.66;5038888;28;20561;-75
2022/09/17 02:56:12;;;;;;;0.40;0.30;;;;;;;11.42;100.00;99934.66;5040523;28;20439;-75
2022/09/17 02:59:00;;;;;;;7.40;0.97;;;;;;;11.39;100.00;99925.94;5017653;28;20530;-75
2022/09/17 03:01:49;;;;;;;2.63;1.17;;;;;;;11.60;100.00;99927.75;5035324;28;20454;-75
2022/09/17 03:04:19;;;;;;;0.40;0.30;;;;;;;11.50;100.00;99932.56;5038559;28;20448;-75
2022/09/17 03:06:46;;;;;;;0.43;0.30;;;;;;;11.47;100.00;99929.16;5044055;28;20475;-75
2022/09/17 03:09:14;;;;;;;0.93;0.93;;;;;;;11.47;99.57;99929.16;5029372;28;21052;-74
2022/09/17 03:11:41;;;;;;;1.77;0.50;;;;;;;11.66;99.76;99932.00;5045831;28;20501;-74
2022/09/17 03:14:07;;;;;;;4.40;0.50;;;;;;;11.58;99.04;99930.50;5038624;28;20513;-75
2022/09/17 03:16:33;;;;;;;10.03;1.90;;;;;;;11.60;99.21;99937.53;5044907;28;20477;-75
2022/09/17 03:19:00;;;;;;;0.60;0.40;;;;;;;11.51;99.62;99928.09;5040262;28;20575;-74
2022/09/17 03:21:26;;;;;;;1.50;0.60;;;;;;;11.56;99.33;99918.16;5042849;28;20509;-75
2022/09/17 03:23:53;;;;;;;0.43;0.30;;;;;;;11.51;99.12;99917.47;5034519;28;20968;-75
2022/09/17 03:26:19;;;;;;;0.40;0.30;;;;;;;11.46;99.86;99924.75;5042647;28;20452;-75
2022/09/17 03:28:46;;;;;;;0.67;0.67;;;;;;;11.50;99.16;99926.38;5041987;28;20957;-75
2022/09/17 03:31:12;;;;;;;0.40;0.30;;;;;;;11.50;99.32;99927.25;5032764;28;20937;-74
2022/09/17 03:33:38;;;;;;;0.70;0.47;;;;;;;11.43;100.00;99931.06;5031791;28;20537;-75
2022/09/17 03:36:05;;;;;;;0.50;0.30;;;;;;;11.38;99.96;99922.41;5042678;28;20521;-74
2022/09/17 03:38:33;;;;;;;0.50;0.33;;;;;;;11.46;100.00;99928.28;5047840;28;20447;-74
2022/09/17 03:41:01;;;;;;;0.90;0.50;;;;;;;11.46;100.00;99924.75;5032745;28;20452;-74
2022/09/17 03:43:28;;;;;;;0.40;0.30;;;;;;;11.43;99.35;99927.56;5042244;28;20508;-74
2022/09/17 03:45:55;;;;;;;8.30;1.27;;;;;;;11.47;99.85;99924.69;5052639;28;20458;-75
2022/09/17 03:48:21;;;;;;;5.20;0.93;;;;;;;11.43;99.77;99935.53;5040524;28;20475;-75
2022/09/17 03:50:49;;;;;;;3.80;1.17;;;;;;;11.36;100.00;99937.53;5044432;28;20537;-74
2022/09/17 03:53:16;;;;;;;0.50;0.40;;;;;;;11.54;99.80;99939.53;5046064;28;20943;-74
2022/09/17 03:55:42;;;;;;;1.80;0.77;;;;;;;11.53;99.68;99935.13;5043952;28;20452;-74
2022/09/17 03:58:09;;;;;;;2.20;1.03;;;;;;;11.44;100.00;99931.94;5048351;28;20482;-74
2022/09/17 04:00:36;;;;;;;1.73;0.63;;;;;;;11.49;99.28;99935.28;5046317;28;20458;-75
2022/09/17 04:03:04;;;;;;;0.50;0.37;;;;;;;11.56;99.29;99947.44;5040349;28;20504;-75
2022/09/17 04:05:31;;;;;;;7.97;0.80;;;;;;;11.61;99.24;99945.47;5042220;28;20513;-75
2022/09/17 04:07:58;;;;;;;0.53;0.30;;;;;;;11.67;99.20;99947.06;5041322;28;20555;-75
2022/09/17 04:10:24;;;;;;;0.40;0.30;;;;;;;11.74;99.12;99944.06;5048299;28;20482;-75
2022/09/17 04:12:51;;;;;;;6.63;0.67;;;;;;;11.68;99.43;99952.31;5041361;28;20481;-75
2022/09/17 04:15:17;;;;;;;0.40;0.30;;;;;;;11.67;99.67;99950.56;5042178;28;20448;-75
2022/09/17 04:17:44;;;;;;;0.60;0.30;;;;;;;11.58;100.00;99956.25;5045016;28;20845;-75
2022/09/17 04:20:10;;;;;;;0.63;0.60;;;;;;;11.59;100.00;99965.97;5042735;28;21015;-75
2022/09/17 04:22:36;;;;;;;1.90;0.50;;;;;;;11.60;100.00;99953.53;5045889;28;20450;-74
2022/09/17 04:25:03;;;;;;;0.40;0.30;;;;;;;11.68;100.00;99956.78;5042397;28;20452;-75
2022/09/17 04:27:29;;;;;;;2.20;0.50;;;;;;;11.64;100.00;99944.47;5053611;28;20467;-75
2022/09/17 04:29:56;;;;;;;4.70;0.53;;;;;;;11.77;100.00;99953.72;5031312;28;20481;-75
2022/09/17 04:32:22;;;;;;;0.87;0.60;;;;;;;11.74;100.00;99961.84;5042666;28;20528;-74
2022/09/17 04:34:48;;;;;;;0.80;0.80;;;;;;;11.89;99.60;99963.06;5042612;28;20506;-75
2022/09/17 04:37:16;;;;;;;0.63;0.50;;;;;;;11.69;100.00;99959.38;5047468;28;20490;-75
2022/09/17 04:39:42;;;;;;;2.10;0.90;;;;;;;11.78;100.00;99955.47;5041966;28;20456;-74
2022/09/17 04:42:08;;;;;;;0.73;0.73;;;;;;;11.77;100.00;99951.06;5045124;28;21390;-74
2022/09/17 04:44:35;;;;;;;0.47;0.47;;;;;;;11.80;100.00;99967.84;5040160;28;21003;-74
2022/09/17 04:47:01;;;;;;;2.87;0.90;;;;;;;11.82;100.00;99959.78;5047401;28;20480;-74
2022/09/17 04:49:29;;;;;;;0.50;0.40;;;;;;;11.75;100.00;99961.78;5028905;28;20484;-74
2022/09/17 04:51:56;;;;;;;0.50;0.33;;;;;;;11.87;100.00;99957.81;5028316;28;20463;-74
2022/09/17 04:54:23;;;;;;;0.40;0.30;;;;;;;11.96;100.00;99964.59;5040584;28;20451;-74
2022/09/17 04:56:49;;;;;;;0.63;0.43;;;;;;;12.05;100.00;99972.19;5047168;28;20533;-74
2022/09/17 04:59:16;;;;;;;2.67;1.23;;;;;;;12.04;100.00;99974.00;5034372;28;20460;-74
2022/09/17 05:01:42;;;;;;;0.40;0.30;;;;;;;12.10;100.00;99980.88;5047034;28;20505;-74
2022/09/17 05:04:09;;;;;;;0.70;0.40;;;;;;;12.05;100.00;99974.84;5047432;28;20923;-74
2022/09/17 05:06:35;;;;;;;0.70;0.70;;;;;;;11.83;100.00;99974.84;5033103;28;20502;-74
2022/09/17 05:09:02;;;;;;;0.50;0.40;;;;;;;11.86;100.00;99980.03;5030451;28;21015;-74
2022/09/17 05:11:28;;;;;;;6.10;0.50;;;;;;;11.89;100.00;99974.59;5040398;28;20458;-74
2022/09/17 05:13:55;;;;;;;11.13;1.47;;;;;;;11.86;100.00;99982.72;5035926;28;20509;-73
2022/09/17 05:16:21;;;;;;;0.77;0.40;;;;;;;11.84;100.00;99977.44;5034849;28;20532;-73
2022/09/17 05:18:50;;;;;;;0.77;0.40;;;;;;;11.79;100.00;99991.88;5030261;28;20540;-74
2022/09/17 05:21:18;;;;;;;0.57;0.50;;;;;;;11.89;100.00;99987.91;5043728;28;20506;-73
2022/09/17 05:23:44;;;;;;;0.50;0.30;;;;;;;11.91;100.00;99998.50;5033526;28;20507;-74
2022/09/17 05:26:10;;;;;;;9.57;1.30;;;;;;;11.84;100.00;99990.75;5041423;28;20977;-74
2022/09/17 05:28:37;;;;;;;0.63;0.50;;;;;;;11.84;100.00;99985.44;5042096;28;20572;-74
2022/09/17 05:31:03;;;;;;;13.77;0.90;;;;;;;11.99;100.00;99991.09;5034722;28;20488;-74
2022/09/17 05:33:30;;;;;;;0.90;0.90;;;;;;;11.88;100.00;99983.50;5046826;28;20545;-74
2022/09/17 05:35:56;;;;;;;0.40;0.30;;;;;;;12.01;100.00;99981.25;5040395;28;20466;-74
2022/09/17 05:38:22;;;;;;;19.70;1.17;;;;;;;11.92;100.00;99986.91;5045265;28;20467;-74
2022/09/17 05:40:49;;;;;;;5.57;1.20;;;;;;;11.98;100.00;99982.25;5031910;28;20444;-74
2022/09/17 05:43:16;;;;;;;1.37;1.27;;;;;;;12.10;100.00;99988.88;5043616;28;20452;-74
2022/09/17 05:45:42;;;;;;;0.43;0.33;;;;;;;12.15;100.00;99995.75;5031894;28;21006;-74
2022/09/17 05:48:12;;;;;;;0.50;0.40;;;;;;;12.18;100.00;99996.56;5019956;28;20481;-74
2022/09/17 05:50:38;;;;;;;0.50;0.40;;;;;;;12.20;100.00;99998.25;5032847;28;20832;-74
2022/09/17 05:53:09;;;;;;;1.03;0.70;;;;;;;12.20;100.00;100011.56;5046131;28;20492;-75
2022/09/17 05:55:35;;;;;;;0.70;0.70;;;;;;;12.19;99.96;100007.16;5042503;28;20443;-75
2022/09/17 05:58:28;;;;;;;5.70;0.70;;;;;;;12.25;100.00;100020.25;5038154;28;20482;-75
2022/09/17 06:00:54;;;;;;;0.80;0.60;;;;;;;12.30;99.85;100022.72;5037416;28;20569;-75
2022/09/17 06:03:21;;;;;;;0.40;0.30;;;;;;;12.25;100.00;100022.91;5026989;28;20455;-75
2022/09/17 06:05:54;;;;;;;2.60;1.17;;;;;;;12.23;100.00;100021.25;5037740;28;20925;-75
2022/09/17 06:08:21;;;;;;;2.70;0.57;;;;;;;12.49;100.00;100029.06;5036349;28;20548;-75
2022/09/17 06:10:48;;;;;;;0.70;0.50;;;;;;;12.36;100.00;100031.34;5034989;28;20992;-75
2022/09/17 06:13:16;;;;;;;8.90;0.87;;;;;;;12.54;100.00;100028.88;5047095;28;20454;-75
2022/09/17 06:15:51;;;;;;;3.13;1.07;;;;;;;12.73;100.00;100032.50;5039506;28;20464;-75
2022/09/17 06:18:18;;;;;;;11.73;0.70;;;;;;;12.79;100.00;100031.38;5032120;28;20471;-75
2022/09/17 06:20:59;;;;;;;13.97;2.40;;;;;;;12.87;99.94;100037.25;5041193;28;20446;-75
2022/09/17 06:23:26;;;;;;;2.30;0.40;;;;;;;12.81;100.00;100037.53;5037544;28;20460;-75
2022/09/17 06:25:58;;;;;;;0.57;0.57;;;;;;;12.93;100.00;100037.00;5036335;28;21009;-75
2022/09/17 06:28:25;;;;;;;3.50;0.77;;;;;;;13.09;98.54;100037.22;5039849;28;20980;-75
2022/09/17 06:30:53;;;;;;;9.80;0.90;;;;;;;13.14;98.73;100036.06;5045436;28;20488;-75
2022/09/17 06:33:20;;;;;;;8.43;0.93;;;;;;;13.05;97.74;100039.16;5045668;28;20447;-75
2022/09/17 06:35:47;;;;;;;7.27;0.77;;;;;;;13.11;98.12;100036.22;5025528;28;20471;-74
2022/09/17 06:38:14;;;;;;;1.53;0.50;;;;;;;13.16;97.57;100028.91;5029709;28;20471;-75
2022/09/17 06:40:40;;;;;;;1.20;0.40;;;;;;;13.48;96.74;100026.63;5048359;28;20504;-75
2022/09/17 06:43:07;;;;;;;0.50;0.40;;;;;;;13.40;96.61;100024.28;5045010;28;20496;-75
2022/09/17 06:45:33;;;;;;;6.33;1.87;;;;;;;13.47;95.71;100023.09;5045094;28;20460;-75
2022/09/17 06:48:03;;;;;;;0.87;0.40;;;;;;;13.40;95.56;100021.63;5038770;28;20502;-75
2022/09/17 06:50:30;;;;;;;1.10;0.83;;;;;;;13.47;94.91;100019.56;5048456;28;20494;-75
2022/09/17 06:52:56;;;;;;;0.60;0.60;;;;;;;13.69;93.32;100027.47;5025983;28;20456;-76
2022/09/17 06:55:22;;;;;;;10.67;2.13;;;;;;;14.01;93.30;100023.31;5034437;28;20953;-75
2022/09/17 06:57:49;;;;;;;0.70;0.40;;;;;;;14.02;93.06;100028.59;5039577;28;20464;-75
2022/09/17 07:00:15;;;;;;;19.23;1.13;;;;;;;14.20;92.74;100035.72;5038194;28;21005;-75
2022/09/17 07:02:42;;;;;;;1.23;0.50;;;;;;;14.20;91.15;100030.38;5027866;28;20538;-76
2022/09/17 07:05:08;;;;;;;1.47;0.90;;;;;;;14.12;91.30;100031.72;5052051;28;20504;-75
2022/09/17 07:07:35;;;;;;;5.77;1.03;;;;;;;14.19;91.34;100046.50;5038403;28;21054;-75
2022/09/17 07:10:01;;;;;;;6.63;1.47;;;;;;;14.04;91.04;100037.41;5043908;28;20491;-75
2022/09/17 07:12:28;;;;;;;2.30;0.83;;;;;;;14.02;91.12;100041.09;5046523;28;20448;-75
2022/09/17 07:14:54;;;;;;;5.03;0.63;;;;;;;14.17;91.69;100043.91;5044104;28;20514;-75
2022/09/17 07:17:20;;;;;;;0.80;0.50;;;;;;;14.26;90.45;100044.41;5051028;28;20991;-75
2022/09/17 07:19:47;;;;;;;2.40;0.87;;;;;;;14.34;91.08;100036.88;5040698;28;20510;-76
2022/09/17 07:22:13;;;;;;;7.00;0.80;;;;;;;14.40;91.11;100040.13;5041832;28;20456;-75
2022/09/17 07:24:39;;;;;;;3.67;0.87;;;;;;;14.30;91.25;100037.97;5043970;28;20513;-75
2022/09/17 07:27:06;;;;;;;3.70;0.73;;;;;;;14.31;91.22;100040.56;5040943;28;20537;-75
2022/09/17 07:29:32;;;;;;;0.60;0.40;;;;;;;14.26;90.84;100045.28;5049526;28;20455;-75
2022/09/17 07:31:59;;;;;;;0.60;0.40;;;;;;;14.24;91.57;100039.97;5041520;28;21069;-75
2022/09/17 07:34:27;;;;;;;3.90;0.73;;;;;;;14.16;91.94;100033.28;5044741;28;20455;-76
2022/09/17 07:36:54;;;;;;;0.73;0.57;;;;;;;14.15;92.27;100037.75;5044479;28;20894;-76
2022/09/17 07:39:20;;;;;;;1.50;0.60;;;;;;;14.07;91.89;100037.25;5043852;28;20884;-75
2022/09/17 07:41:46;;;;;;;0.60;0.40;;;;;;;14.14;91.67;100036.03;5039054;28;21019;-76
2022/09/17 07:44:13;;;;;;;0.50;0.40;;;;;;;14.13;91.62;100033.44;5045310;28;20955;-75
2022/09/17 07:46:39;;;;;;;7.10;0.50;;;;;;;14.09;91.40;100042.50;5042068;28;20478;-76
2022/09/17 07:49:05;;;;;;;0.40;0.30;;;;;;;14.09;91.75;100035.38;5052565;28;20516;-75
2022/09/17 07:51:32;;;;;;;0.50;0.37;;;;;;;14.01;91.39;100029.53;5047983;28;20526;-75
2022/09/17 07:53:58;;;;;;;3.80;0.60;;;;;;;14.23;90.64;100035.56;5034940;28;20470;-76
2022/09/17 07:56:26;;;;;;;1.70;0.83;;;;;;;14.20;90.36;100037.53;5047266;28;20459;-75
2022/09/17 07:58:53;;;;;;;3.77;2.10;;;;;;;14.18;89.97;100044.75;5034713;28;20460;-75
2022/09/17 08:01:22;;;;;;;5.10;0.50;;;;;;;14.28;91.14;100046.06;5046502;28;20940;-76
2022/09/17 08:03:50;;;;;;;12.27;0.93;;;;;;;14.15;90.72;100048.47;5038197;28;20479;-75
2022/09/17 08:06:20;;;;;;;8.33;0.50;;;;;;;14.39;89.62;100048.22;5047725;28;20451;-76
2022/09/17 08:08:48;;;;;;;0.40;0.30;;;;;;;14.41;88.39;100055.25;5046556;28;20811;-76
2022/09/17 08:11:17;;;;;;;9.80;0.60;;;;;;;14.46;87.61;100055.03;5041292;28;20486;-76
2022/09/17 08:14:04;;;;;;;0.50;0.40;;;;;;;14.52;87.06;100047.56;5039918;28;20541;-75
2022/09/17 08:16:30;;;;;;;0.60;0.60;;;;;;;14.91;86.24;100053.72;5048035;28;20471;-76
2022/09/17 08:18:57;;;;;;;5.90;0.60;;;;;;;15.06;84.83;100051.13;5052676;28;20455;-75
2022/09/17 08:21:23;;;;;;;1.63;0.40;;;;;;;14.88;85.14;100052.06;5037309;28;20456;-76
2022/09/17 08:23:50;;;;;;;7.57;1.17;;;;;;;14.77;84.95;100051.72;5028959;28;20452;-76
2022/09/17 08:26:19;;;;;;;9.50;1.33;;;;;;;15.01;85.22;100047.81;5042370;28;20508;-75
2022/09/17 08:28:54;;;;;;;1.17;1.07;;;;;;;14.97;84.55;100040.91;5046713;28;20446;-76
2022/09/17 08:31:22;;;;;;;0.53;0.40;;;;;;;15.23;85.45;100049.41;5043624;28;20508;-75
2022/09/17 08:33:49;;;;;;;7.60;1.27;;;;;;;15.22;83.89;100047.69;5039664;28;20451;-76
2022/09/17 08:36:18;;;;;;;2.10;1.00;;;;;;;15.23;82.05;100041.38;5032697;28;20506;-75
2022/09/17 08:38:45;;;;;;;1.50;0.40;;;;;;;14.98;81.47;100041.78;5040934;28;20451;-75
2022/09/17 08:41:19;;;;;;;11.20;1.10;;;;;;;15.04;81.85;100039.63;5039368;28;20463;-75
2022/09/17 08:43:58;;;;;;;1.73;1.63;;;;;;;15.35;80.08;100044.28;5049424;28;20455;-76
2022/09/17 08:46:25;;;;;;;1.53;1.47;;;;;;;15.65;80.28;100054.38;5040473;28;20452;-76
2022/09/17 08:48:57;;;;;;;1.93;0.40;;;;;;;15.55;79.44;100047.72;5046658;28;20490;-76
2022/09/17 08:52:00;;;;;;;0.40;0.20;;;;;;;15.65;78.64;100049.88;5068236;23;20502;-51
2022/09/17 08:54:51;;;;;;;1.43;0.70;;;;;;;15.52;76.67;100050.56;5021236;28;20464;-51
2022/09/17 08:57:33;;;;;;;6.70;0.53;;;;;;;15.36;80.27;100053.19;5039960;28;20458;-51
2022/09/17 09:00:15;;;;;;;0.57;0.33;;;;;;;15.34;79.86;100047.03;5043654;28;20452;-51
2022/09/17 09:02:48;;;;;;;1.10;0.60;;;;;;;15.35;80.24;100049.66;5007512;28;20476;-51
2022/09/17 09:05:19;;;;;;;10.10;0.40;;;;;;;15.37;84.45;100060.28;5041881;28;20499;-51
2022/09/17 09:07:53;;;;;;;1.10;0.57;;;;;;;15.04;83.99;100065.53;5041405;28;20919;-51
2022/09/17 09:10:30;;;;;;;0.50;0.33;;;;;;;15.14;83.02;100061.47;5039870;28;20594;-51
2022/09/17 09:12:59;;;;;;;0.87;0.37;;;;;;;15.40;83.47;100052.09;5043145;28;20475;-51
2022/09/17 09:15:34;;;;;;;1.00;0.70;;;;;;;15.35;81.70;100041.63;5030379;28;21011;-51
2022/09/17 09:18:16;;;;;;;3.57;0.50;;;;;;;15.51;81.65;100046.16;5025660;28;20516;-51
2022/09/17 09:20:50;;;;;;;2.20;0.83;;;;;;;15.55;80.72;100035.19;5036191;28;20446;-51
2022/09/17 09:23:20;;;;;;;0.87;0.50;;;;;;;15.78;78.48;100038.50;5027583;28;20452;-51
2022/09/17 09:26:01;;;;;;;2.93;0.80;;;;;;;16.07;74.94;100040.47;5043029;28;20451;-51
2022/09/17 09:28:41;;;;;;;0.50;0.40;;;;;;;16.34;73.02;100037.19;5043561;28;20508;-51
2022/09/17 09:31:18;;;;;;;6.63;0.80;;;;;;;16.36;72.15;100040.66;5039020;28;20498;-51
2022/09/17 09:33:46;;;;;;;0.70;0.47;;;;;;;16.64;71.68;100045.31;5036329;28;20935;-51
2022/09/17 09:36:15;;;;;;;10.60;0.80;;;;;;;16.95;71.45;100053.34;5045252;28;20546;-51
2022/09/17 09:38:51;;;;;;;1.93;0.50;;;;;;;16.73;72.80;100051.06;5036736;28;20928;-52
2022/09/17 09:41:35;;;;;;;2.47;0.90;;;;;;;16.91;69.45;100057.16;5037327;28;20843;-51
2022/09/17 09:44:08;;;;;;;1.23;1.07;;;;;;;16.67;71.88;100058.53;5026609;28;21302;-52
2022/09/17 09:46:47;;;;;;;0.60;0.40;;;;;;;16.55;71.61;100060.97;5035928;28;20947;-51
2022/09/17 09:49:25;;;;;;;6.17;0.50;;;;;;;16.70;71.17;100064.63;5033903;28;20455;-52
2022/09/17 09:52:49;;;;;;;9.20;0.63;;;;;;;16.69;70.31;100062.91;5042555;28;21375;-52
2022/09/17 09:55:46;;;;;;;6.77;0.53;;;;;;;16.04;71.27;100064.75;4948836;29;20459;-52
2022/09/17 09:58:36;;;;;;;0.40;0.20;;;;;;;15.78;70.18;100070.66;4948892;29;20460;-51
2022/09/17 10:01:10;;;;;;;1.70;0.40;;;;;;;15.65;71.02;100076.69;5030200;28;20480;-51
2022/09/17 10:03:39;;;;;;;0.40;0.30;;;;;;;15.64;69.81;100076.75;5046595;28;20463;-51
2022/09/17 10:06:10;;;;;;;0.97;0.50;;;;;;;15.68;70.38;100079.19;5042770;28;20586;-51
2022/09/17 10:09:01;;;;;;;12.53;0.67;;;;;;;15.68;71.28;100079.19;5039885;28;20462;-51
2022/09/17 10:11:34;;;;;;;0.80;0.70;;;;;;;15.82;72.17;100088.31;5040998;28;20495;-51
2022/09/17 10:14:26;;;;;;;0.77;0.43;;;;;;;16.05;72.26;100076.34;5042890;28;20521;-52
2022/09/17 10:17:18;;;;;;;7.30;1.50;;;;;;;16.41;70.20;100084.16;5029130;28;20826;-52
2022/09/17 10:19:45;;;;;;;0.93;0.93;;;;;;;16.34;70.51;100077.44;5011190;28;20452;-52
2022/09/17 10:22:39;;;;;;;0.60;0.33;;;;;;;16.45;69.88;100089.28;5035007;28;20471;-51
2022/09/17 10:25:21;;;;;;;1.47;0.37;;;;;;;16.52;69.44;100079.94;5036886;28;20455;-52
2022/09/17 10:27:48;;;;;;;0.70;0.40;;;;;;;16.38;67.58;100087.03;5025301;28;20802;-52
2022/09/17 10:30:17;;;;;;;4.57;0.60;;;;;;;16.18;68.19;100085.47;5035152;28;20451;-51
2022/09/17 10:33:14;;;;;;;1.40;0.70;;;;;;;16.07;68.50;100085.19;5043261;28;20494;-51
2022/09/17 10:35:54;;;;;;;2.30;0.70;;;;;;;15.87;69.95;100080.88;5042124;28;20451;-51
2022/09/17 10:38:33;;;;;;;3.40;0.60;;;;;;;15.64;68.73;100079.44;5042452;28;20584;-52
2022/09/17 10:41:14;;;;;;;1.37;0.37;;;;;;;16.02;70.04;100077.34;5036160;28;20458;-50
2022/09/17 10:43:41;;;;;;;2.00;0.70;;;;;;;16.28;68.95;100075.94;5042272;28;20455;-52
2022/09/17 10:46:24;;;;;;;0.50;0.40;;;;;;;16.00;69.29;100076.59;5041510;28;20504;-52
2022/09/17 10:48:58;;;;;;;4.53;0.70;;;;;;;16.25;68.11;100076.97;5029032;28;20457;-51
2022/09/17 10:51:25;;;;;;;11.00;0.60;;;;;;;16.52;67.39;100069.19;5039166;28;20506;-51
2022/09/17 10:54:06;;;;;;;19.03;2.10;;;;;;;16.93;66.30;100066.00;5030755;28;20459;-51
2022/09/17 10:56:38;;;;;;;0.50;0.33;;;;;;;16.91;66.43;100058.97;5043933;28;20944;-51
2022/09/17 10:59:21;;;;;;;0.80;0.70;;;;;;;17.04;66.22;100062.69;5045092;28;20450;-50
2022/09/17 11:02:22;;;;;;;1.00;0.57;;;;;;;17.30;67.20;100059.31;5046807;28;21047;-51
2022/09/17 11:04:51;;;;;;;0.40;0.30;;;;;;;17.53;66.69;100057.03;5039454;28;20450;-51
2022/09/17 11:07:29;;;;;;;0.50;0.30;;;;;;;17.73;68.63;100059.41;5048721;28;20539;-52
2022/09/17 11:10:13;;;;;;;0.70;0.40;;;;;;;17.63;68.76;100042.09;5044692;28;20447;-51
2022/09/17 11:12:46;;;;;;;0.60;0.40;;;;;;;17.46;67.75;100057.44;5036620;28;20594;-51
2022/09/17 11:15:29;;;;;;;2.57;2.47;;;;;;;17.35;67.59;100050.97;5040737;28;20451;-51
2022/09/17 11:18:11;;;;;;;1.27;0.63;;;;;;;17.75;66.79;100044.91;5036175;28;20454;-51
2022/09/17 11:20:46;;;;;;;0.80;0.70;;;;;;;17.95;65.08;100038.28;5038954;28;20477;-51
2022/09/17 11:23:36;;;;;;;2.77;1.07;;;;;;;17.80;66.24;100039.25;5044303;28;20488;-51
2022/09/17 11:26:28;;;;;;;0.50;0.37;;;;;;;17.75;66.57;100044.06;5045309;28;20466;-52
2022/09/17 11:29:25;;;;;;;0.93;0.40;;;;;;;17.41;65.16;100027.28;5045611;28;20456;-51
2022/09/17 11:32:22;;;;;;;1.43;0.50;;;;;;;17.28;65.26;100038.88;5027013;28;20466;-52
2022/09/17 11:35:30;;;;;;;3.10;1.40;;;;;;;16.99;65.60;100038.75;5049927;28;20806;-51
2022/09/17 11:38:10;;;;;;;3.43;0.37;;;;;;;16.90;65.13;100033.94;4974026;28;20994;-50
2022/09/17 11:40:41;;;;;;;2.37;0.87;;;;;;;17.37;65.50;100033.78;4979169;28;20435;-51
2022/09/17 11:43:26;;;;;;;0.40;0.30;;;;;;;17.70;63.50;100030.03;5021551;28;20450;-52
2022/09/17 11:46:05;;;;;;;1.03;0.70;;;;;;;18.09;62.46;100015.00;5042902;28;20496;-51
2022/09/17 11:48:38;;;;;;;20.70;1.90;;;;;;;18.18;61.99;100014.44;5038570;28;20425;-51